Time;durP1;ratioP1;P1;durP2;ratioP2;P2;SDS_P1;SDS_P2;PMS_P1;PMS_P2;Temp;Humidity;BMP_temperature;BMP_pressure;BME280_temperature;BME280_humidity;BME280_pressure;Samples;Min_cycle;Max_cycle;Signal;HPM_P1;HPM_P2
2021/08/31 00:01:03;;;;;;;0.63;0.40;;;;;;;18.57;59.62;101801.66;5014033;28;20470;-85
2021/08/31 00:03:28;;;;;;;1.40;0.50;;;;;;;18.49;60.27;101810.22;5014213;28;20492;-85
2021/08/31 00:05:54;;;;;;;4.75;0.98;;;;;;;18.51;60.63;101810.13;5014545;28;20091;-86
2021/08/31 00:08:22;;;;;;;1.35;0.65;;;;;;;18.44;61.34;101812.38;5014088;28;20128;-85
2021/08/31 00:10:47;;;;;;;4.40;0.40;;;;;;;18.41;61.97;101812.66;5013834;28;20083;-85
2021/08/31 00:13:12;;;;;;;0.60;0.38;;;;;;;18.35;62.31;101813.97;5013635;28;20030;-86
2021/08/31 00:15:38;;;;;;;3.35;0.50;;;;;;;18.40;62.05;101808.28;5013804;28;20017;-85
2021/08/31 00:18:03;;;;;;;0.60;0.40;;;;;;;18.49;62.10;101814.72;5013593;28;20519;-85
2021/08/31 00:20:29;;;;;;;2.42;0.68;;;;;;;18.33;62.65;101809.75;5014066;28;20037;-85
2021/08/31 00:22:55;;;;;;;1.52;0.40;;;;;;;18.42;62.58;101809.00;5013335;28;20032;-85
2021/08/31 00:25:20;;;;;;;0.82;0.35;;;;;;;18.39;62.79;101809.28;5013534;28;20030;-85
2021/08/31 00:27:46;;;;;;;5.00;0.50;;;;;;;18.36;62.92;101820.13;5013524;28;20025;-85
2021/08/31 00:30:11;;;;;;;1.00;0.50;;;;;;;18.15;64.11;101809.38;5013216;28;20042;-85
2021/08/31 00:32:37;;;;;;;2.92;0.60;;;;;;;18.08;64.39;101811.66;5013550;28;20030;-85
2021/08/31 00:35:03;;;;;;;1.77;0.60;;;;;;;18.33;63.73;101809.75;5013633;28;20250;-85
2021/08/31 00:37:28;;;;;;;1.88;0.30;;;;;;;18.16;64.13;101803.94;5013756;28;20030;-85
2021/08/31 00:39:53;;;;;;;2.13;0.50;;;;;;;18.16;64.79;101813.72;5013771;28;20036;-85
2021/08/31 00:42:19;;;;;;;0.70;0.40;;;;;;;18.27;64.21;101807.59;5024826;28;20109;-85
2021/08/31 00:44:44;;;;;;;1.60;0.40;;;;;;;18.31;64.32;101812.53;5033648;28;20021;-85
2021/08/31 00:47:10;;;;;;;0.82;0.50;;;;;;;18.13;65.07;101814.81;5033566;28;20498;-85
2021/08/31 00:49:36;;;;;;;2.05;0.60;;;;;;;18.22;64.60;101815.91;5033496;28;20434;-85
2021/08/31 00:52:02;;;;;;;1.08;0.47;;;;;;;18.06;65.06;101807.44;5023973;28;20021;-85
2021/08/31 00:54:29;;;;;;;3.42;0.50;;;;;;;18.15;65.02;101812.88;5013481;28;20563;-86
2021/08/31 00:57:03;;;;;;;4.25;0.50;;;;;;;17.98;65.44;101813.34;5013407;28;20030;-85
2021/08/31 00:59:28;;;;;;;1.08;0.52;;;;;;;17.73;66.49;101812.53;5013830;28;20476;-85
2021/08/31 01:01:54;;;;;;;1.85;0.45;;;;;;;17.96;65.86;101812.59;5013004;28;20037;-85
2021/08/31 01:04:21;;;;;;;1.45;0.40;;;;;;;18.12;65.52;101818.41;5013345;28;20495;-85
2021/08/31 01:06:50;;;;;;;2.13;0.85;;;;;;;18.11;65.85;101822.06;5013398;28;20084;-87
2021/08/31 01:09:16;;;;;;;1.33;0.50;;;;;;;18.01;67.14;101815.78;5013504;28;20033;-86
2021/08/31 01:11:41;;;;;;;2.30;0.57;;;;;;;17.99;67.62;101817.66;5012927;28;20029;-86
2021/08/31 01:14:08;;;;;;;2.38;0.43;;;;;;;17.81;68.41;101815.44;5013259;28;20088;-85
2021/08/31 01:16:33;;;;;;;1.25;0.52;;;;;;;17.77;68.99;101815.78;5013606;28;20502;-85
2021/08/31 01:18:58;;;;;;;3.55;0.70;;;;;;;17.80;68.60;101824.38;5013466;28;20026;-86
2021/08/31 01:21:24;;;;;;;2.35;0.60;;;;;;;17.67;69.25;101823.59;5013307;28;20032;-85
2021/08/31 01:23:50;;;;;;;2.65;0.80;;;;;;;17.72;69.19;101821.44;5012929;28;20025;-85
2021/08/31 01:26:16;;;;;;;1.25;0.63;;;;;;;17.64;69.17;101818.53;5012686;28;20030;-85
2021/08/31 01:28:42;;;;;;;1.42;0.70;;;;;;;17.63;69.38;101820.34;5012416;28;20049;-85
2021/08/31 01:31:08;;;;;;;1.52;0.57;;;;;;;17.45;69.65;101819.91;5012590;28;20029;-85
2021/08/31 01:33:34;;;;;;;1.20;0.43;;;;;;;17.60;69.50;101822.38;5012294;28;20026;-85
2021/08/31 01:36:21;;;;;;;1.00;0.50;;;;;;;17.82;69.29;101811.81;5012756;28;20033;-85
2021/08/31 01:38:48;;;;;;;2.10;0.45;;;;;;;17.61;69.82;101814.31;5013110;28;20488;-85
2021/08/31 01:41:13;;;;;;;1.45;0.45;;;;;;;17.52;70.14;101808.84;5011999;28;20077;-86
2021/08/31 01:43:39;;;;;;;2.45;0.60;;;;;;;17.37;69.95;101809.00;4992687;28;20029;-85
2021/08/31 01:46:05;;;;;;;0.93;0.50;;;;;;;17.51;69.43;101807.97;4975857;28;20026;-86
2021/08/31 01:48:30;;;;;;;0.65;0.20;;;;;;;17.53;69.20;101815.84;4992889;28;20030;-85
2021/08/31 01:50:56;;;;;;;2.97;0.60;;;;;;;17.36;69.91;101823.25;4992987;28;20496;-86
2021/08/31 01:53:21;;;;;;;1.20;0.50;;;;;;;17.56;69.38;101820.94;5009506;28;20392;-85
2021/08/31 01:55:46;;;;;;;1.48;0.60;;;;;;;17.56;69.32;101811.13;5012216;28;20034;-86
2021/08/31 01:58:12;;;;;;;2.03;0.50;;;;;;;17.44;69.53;101823.53;5012638;28;20029;-86
2021/08/31 02:00:37;;;;;;;2.00;0.70;;;;;;;17.44;69.59;101818.22;5012399;28;20072;-85
2021/08/31 02:03:03;;;;;;;0.73;0.50;;;;;;;17.46;69.64;101820.75;5012317;28;20026;-86
2021/08/31 02:05:28;;;;;;;3.58;0.45;;;;;;;17.59;68.85;101826.81;5012691;28;20022;-86
2021/08/31 02:07:54;;;;;;;4.03;0.60;;;;;;;17.61;69.14;101826.72;4994965;28;20076;-86
2021/08/31 02:10:19;;;;;;;1.90;0.60;;;;;;;17.62;69.01;101836.41;5012408;28;20033;-86
2021/08/31 02:12:44;;;;;;;0.90;0.43;;;;;;;17.60;69.74;101827.69;5012108;28;20504;-86
2021/08/31 02:15:10;;;;;;;2.10;0.65;;;;;;;17.51;70.97;101833.69;5011948;28;20044;-86
2021/08/31 02:17:36;;;;;;;3.08;0.50;;;;;;;17.58;70.14;101829.63;5012378;28;20034;-86
2021/08/31 02:20:03;;;;;;;1.00;0.43;;;;;;;17.66;69.95;101844.97;5012390;28;20030;-86
2021/08/31 02:22:28;;;;;;;1.42;0.60;;;;;;;17.62;70.32;101842.53;5012010;28;20049;-86
2021/08/31 02:24:53;;;;;;;1.38;0.70;;;;;;;17.48;71.71;101836.59;5012428;28;20435;-86
2021/08/31 02:27:19;;;;;;;1.55;0.57;;;;;;;17.56;70.81;101826.25;5012273;28;20030;-85
2021/08/31 02:29:44;;;;;;;1.45;0.75;;;;;;;17.58;70.78;101838.44;5012238;28;20146;-86
2021/08/31 02:32:10;;;;;;;1.50;0.60;;;;;;;17.46;71.24;101831.38;5011869;28;20042;-86
2021/08/31 02:34:35;;;;;;;3.67;0.68;;;;;;;17.60;70.63;101827.69;5011674;28;20071;-85
2021/08/31 02:37:00;;;;;;;1.13;0.80;;;;;;;17.56;70.54;101835.03;5012216;28;20173;-85
2021/08/31 02:39:26;;;;;;;1.48;0.50;;;;;;;17.56;70.53;101832.38;5012065;28;20014;-85
2021/08/31 02:41:51;;;;;;;0.77;0.43;;;;;;;17.60;70.11;101833.00;5011799;28;20388;-85
2021/08/31 02:44:17;;;;;;;2.92;0.98;;;;;;;17.56;69.55;101832.38;5012165;28;20472;-85
2021/08/31 02:46:42;;;;;;;0.93;0.50;;;;;;;17.53;69.87;101831.75;5011966;28;20030;-84
2021/08/31 02:49:08;;;;;;;0.85;0.70;;;;;;;17.53;69.96;101837.06;5012141;28;20376;-84
2021/08/31 02:51:34;;;;;;;1.00;0.70;;;;;;;17.47;70.18;101838.38;5011736;28;20041;-84
2021/08/31 02:53:59;;;;;;;1.67;0.80;;;;;;;17.36;71.36;101841.00;5014958;28;20113;-86
2021/08/31 02:56:24;;;;;;;1.67;0.80;;;;;;;17.42;70.88;101838.72;5015420;28;20042;-86
2021/08/31 02:58:50;;;;;;;1.10;0.43;;;;;;;17.45;70.71;101835.81;5015119;28;20037;-86
2021/08/31 03:03:57;;;;;;;2.17;0.75;;;;;;;17.44;71.20;101833.31;5015768;28;20053;-86
2021/08/31 03:06:24;;;;;;;1.02;0.90;;;;;;;17.44;70.96;101833.31;5015250;28;20025;-84
2021/08/31 03:08:49;;;;;;;0.90;0.60;;;;;;;17.36;71.22;101841.00;5015144;28;20033;-85
2021/08/31 03:11:15;;;;;;;1.30;0.65;;;;;;;17.33;71.64;101838.56;5014874;28;20388;-85
2021/08/31 03:13:40;;;;;;;1.10;0.70;;;;;;;17.35;71.93;101844.59;5015281;28;20030;-85
2021/08/31 03:16:06;;;;;;;1.40;0.70;;;;;;;17.42;71.64;101840.53;5014921;28;20034;-85
2021/08/31 03:18:31;;;;;;;2.40;0.90;;;;;;;17.30;72.46;101837.00;5014913;28;20030;-85
2021/08/31 03:20:56;;;;;;;2.47;1.00;;;;;;;17.26;73.34;101843.47;5015283;28;20108;-85
2021/08/31 03:23:22;;;;;;;1.98;0.90;;;;;;;17.33;72.79;101847.38;5015128;28;20045;-85
2021/08/31 03:25:47;;;;;;;3.47;0.95;;;;;;;17.31;72.69;101845.78;5015307;28;20430;-85
2021/08/31 03:28:13;;;;;;;2.42;0.88;;;;;;;17.19;73.26;101847.53;5015081;28;20041;-85
2021/08/31 03:30:38;;;;;;;2.65;1.00;;;;;;;17.28;72.77;101849.53;5014896;28;20072;-85
2021/08/31 03:33:04;;;;;;;4.43;1.00;;;;;;;17.27;73.30;101841.66;5015076;28;20026;-85
2021/08/31 03:35:29;;;;;;;3.83;0.90;;;;;;;17.32;72.23;101856.31;5014793;28;20037;-85
2021/08/31 03:37:55;;;;;;;1.23;0.90;;;;;;;17.20;72.93;101857.19;5014724;28;20029;-85
2021/08/31 03:40:20;;;;;;;2.17;0.85;;;;;;;17.22;73.46;101861.44;5014812;28;20068;-85
2021/08/31 03:42:46;;;;;;;1.25;1.02;;;;;;;17.24;74.22;101866.63;5014683;28;20087;-85
2021/08/31 03:45:13;;;;;;;1.35;0.80;;;;;;;17.12;75.53;101851.59;5014975;28;20492;-85
2021/08/31 03:47:38;;;;;;;2.60;0.70;;;;;;;17.02;75.80;101854.94;5014165;28;20055;-85
2021/08/31 03:50:04;;;;;;;2.50;0.95;;;;;;;17.13;76.68;101863.91;5014806;28;20026;-85
2021/08/31 03:52:30;;;;;;;2.53;0.82;;;;;;;17.16;75.73;101861.00;5014554;28;20065;-84
2021/08/31 03:54:55;;;;;;;2.45;1.00;;;;;;;17.07;75.33;101861.69;5014656;28;20030;-85
2021/08/31 03:57:20;;;;;;;3.20;1.10;;;;;;;17.03;76.84;101859.25;5015368;28;20113;-85
2021/08/31 03:59:46;;;;;;;3.80;0.95;;;;;;;16.85;77.50;101858.78;5015174;28;20041;-85
2021/08/31 04:02:11;;;;;;;2.90;1.05;;;;;;;16.79;77.95;101863.66;5014450;28;20026;-85
2021/08/31 04:04:37;;;;;;;2.17;0.75;;;;;;;16.82;77.39;101852.84;5014098;28;20104;-85
2021/08/31 04:07:02;;;;;;;1.95;0.70;;;;;;;16.84;76.57;101853.56;5014417;28;20032;-85
2021/08/31 04:09:27;;;;;;;1.73;0.85;;;;;;;16.87;76.84;101849.88;5015113;28;20113;-85
2021/08/31 04:11:53;;;;;;;2.35;0.80;;;;;;;16.91;76.75;101851.34;5014990;28;20480;-85
2021/08/31 04:14:18;;;;;;;1.42;0.60;;;;;;;16.85;76.62;101853.47;5014529;28;20439;-85
2021/08/31 04:16:44;;;;;;;2.67;0.47;;;;;;;16.80;76.08;101854.72;5015516;28;20113;-85
2021/08/31 04:19:09;;;;;;;1.70;0.50;;;;;;;16.74;77.46;101849.84;5024795;28;20042;-85
2021/08/31 04:21:34;;;;;;;1.08;0.40;;;;;;;16.76;77.26;101854.09;5025404;28;20045;-86
2021/08/31 04:24:00;;;;;;;1.00;0.70;;;;;;;16.63;75.90;101858.59;5019022;28;20029;-85
2021/08/31 04:26:25;;;;;;;0.63;0.30;;;;;;;16.72;75.39;101862.38;5015737;28;20071;-85
2021/08/31 04:28:51;;;;;;;2.13;0.63;;;;;;;16.66;74.94;101861.84;5016196;28;20030;-84
2021/08/31 04:31:18;;;;;;;3.22;0.70;;;;;;;16.72;75.34;101867.69;5014311;28;20411;-85
2021/08/31 04:33:44;;;;;;;0.80;0.47;;;;;;;16.75;74.29;101865.66;5014119;28;20036;-85
2021/08/31 04:36:09;;;;;;;2.45;0.38;;;;;;;16.75;74.34;101860.38;5014105;28;20022;-84
2021/08/31 04:38:34;;;;;;;1.67;0.60;;;;;;;16.67;74.16;101860.06;5016950;28;20113;-85
2021/08/31 04:41:00;;;;;;;3.33;0.40;;;;;;;16.64;73.91;101850.50;5020377;28;20078;-85
2021/08/31 04:43:27;;;;;;;1.20;0.40;;;;;;;16.52;74.87;101859.31;5023431;28;20041;-85
2021/08/31 04:45:52;;;;;;;1.70;0.55;;;;;;;16.54;74.17;101859.22;5022034;28;20064;-85
2021/08/31 04:48:17;;;;;;;2.08;0.50;;;;;;;16.50;73.55;101863.03;5020194;28;20041;-85
2021/08/31 04:50:43;;;;;;;1.20;0.52;;;;;;;16.44;73.80;101849.25;5029357;28;20032;-85
2021/08/31 04:53:08;;;;;;;1.05;0.50;;;;;;;16.30;75.02;101854.66;5019351;28;20049;-85
2021/08/31 04:55:33;;;;;;;2.33;0.63;;;;;;;16.17;75.25;101864.41;5023016;28;20034;-84
2021/08/31 04:57:59;;;;;;;1.58;0.65;;;;;;;16.31;74.11;101860.81;5021915;28;20029;-84
2021/08/31 05:00:24;;;;;;;1.55;0.50;;;;;;;16.11;74.44;101863.03;5022512;28;20026;-85
2021/08/31 05:02:51;;;;;;;2.25;0.63;;;;;;;16.10;75.65;101869.28;5018070;28;20084;-84
2021/08/31 05:05:16;;;;;;;1.30;0.60;;;;;;;16.13;75.69;101865.56;5019205;28;20057;-84
2021/08/31 05:07:41;;;;;;;2.40;0.73;;;;;;;16.11;75.93;101863.03;5014548;28;20030;-84
2021/08/31 05:10:08;;;;;;;0.60;0.50;;;;;;;16.20;75.45;101861.56;5014226;28;20076;-85
2021/08/31 05:12:34;;;;;;;0.90;0.57;;;;;;;16.14;75.82;101860.19;4996095;28;20131;-85
2021/08/31 05:14:59;;;;;;;4.65;0.90;;;;;;;16.18;77.06;101866.13;5013644;28;20468;-85
2021/08/31 05:17:24;;;;;;;2.03;0.80;;;;;;;16.23;76.19;101866.63;5013542;28;20029;-85
2021/08/31 05:19:50;;;;;;;0.65;0.60;;;;;;;16.28;76.36;101863.69;5013485;28;20028;-85
2021/08/31 05:22:15;;;;;;;1.25;0.40;;;;;;;16.30;75.95;101873.22;5013737;28;20026;-85
2021/08/31 05:24:41;;;;;;;1.58;0.80;;;;;;;16.29;76.35;101871.53;5013606;28;20057;-85
2021/08/31 05:27:06;;;;;;;1.50;0.80;;;;;;;16.21;76.77;101876.50;5013227;28;20033;-85
2021/08/31 05:29:32;;;;;;;2.35;0.80;;;;;;;16.25;77.15;101870.91;5013459;28;20029;-85
2021/08/31 05:31:58;;;;;;;2.75;1.20;;;;;;;16.24;77.36;101871.84;5013958;28;20093;-85
2021/08/31 05:34:23;;;;;;;1.88;0.90;;;;;;;16.11;78.06;101876.28;5013201;28;20032;-85
2021/08/31 05:36:48;;;;;;;0.70;0.60;;;;;;;16.26;77.72;101877.88;5013278;28;20026;-85
2021/08/31 05:39:14;;;;;;;3.10;0.80;;;;;;;16.21;78.16;101885.31;5012807;28;20435;-85
2021/08/31 05:41:39;;;;;;;1.90;1.00;;;;;;;16.25;78.31;101889.44;5013087;28;20037;-85
2021/08/31 05:44:04;;;;;;;2.17;1.08;;;;;;;16.31;77.31;101874.06;5013412;28;20048;-85
2021/08/31 05:46:31;;;;;;;1.42;0.88;;;;;;;16.49;76.33;101888.72;5013352;28;20028;-85
2021/08/31 05:48:57;;;;;;;3.40;1.17;;;;;;;16.46;76.36;101888.91;5012651;28;20033;-85
2021/08/31 05:51:22;;;;;;;1.75;1.13;;;;;;;16.38;77.06;101888.59;5013211;28;20026;-85
2021/08/31 05:53:48;;;;;;;3.67;1.00;;;;;;;16.41;76.21;101885.72;5013374;28;20567;-85
2021/08/31 05:56:13;;;;;;;5.63;1.35;;;;;;;16.13;78.19;101877.00;5013136;28;20026;-85
2021/08/31 05:58:38;;;;;;;4.35;1.60;;;;;;;16.36;78.31;101878.09;5012810;28;20068;-85
2021/08/31 06:01:04;;;;;;;3.30;1.50;;;;;;;16.50;77.42;101885.09;5013325;28;20423;-85
2021/08/31 06:03:29;;;;;;;4.80;1.38;;;;;;;16.58;76.98;101882.75;5013136;28;20030;-85
2021/08/31 06:05:54;;;;;;;3.22;1.33;;;;;;;16.60;76.87;101890.59;5013047;28;20040;-85
2021/08/31 06:08:20;;;;;;;2.33;1.40;;;;;;;16.65;76.78;101891.16;5012649;28;20030;-85
2021/08/31 06:10:46;;;;;;;2.47;1.17;;;;;;;16.71;76.13;101897.84;5012610;28;20037;-86
2021/08/31 06:13:11;;;;;;;2.92;1.25;;;;;;;16.66;76.32;101896.31;5012004;28;20117;-86
2021/08/31 06:15:37;;;;;;;5.43;2.22;;;;;;;16.78;76.02;101899.91;5012320;28;20021;-86
2021/08/31 06:18:02;;;;;;;3.30;1.85;;;;;;;16.90;73.97;101903.53;5012345;28;20125;-85
2021/08/31 06:20:28;;;;;;;2.35;1.20;;;;;;;16.95;73.85;101904.06;5012753;28;20029;-86
2021/08/31 06:22:53;;;;;;;6.07;1.80;;;;;;;16.99;73.74;101905.53;5012461;28;20088;-85
2021/08/31 06:25:18;;;;;;;3.33;1.80;;;;;;;16.99;74.11;101905.53;5014598;28;20025;-85
2021/08/31 06:27:44;;;;;;;4.53;1.63;;;;;;;16.93;74.32;101906.00;5013828;28;20472;-85
2021/08/31 06:30:09;;;;;;;2.80;1.52;;;;;;;17.06;74.71;101911.25;5016933;28;20033;-85
2021/08/31 06:32:35;;;;;;;3.03;2.00;;;;;;;17.18;73.84;101910.41;5016496;28;20435;-85
2021/08/31 06:35:00;;;;;;;3.75;1.67;;;;;;;17.22;73.11;101908.38;5016124;28;20029;-86
2021/08/31 06:37:26;;;;;;;1.67;1.45;;;;;;;17.29;72.33;101906.13;5016748;28;20060;-85
2021/08/31 06:39:51;;;;;;;2.15;1.95;;;;;;;17.29;72.76;101904.28;5016367;28;20101;-86
2021/08/31 06:42:16;;;;;;;4.47;1.88;;;;;;;17.48;72.45;101908.28;5015926;28;20037;-85
2021/08/31 06:44:43;;;;;;;3.65;2.03;;;;;;;17.33;73.47;101907.59;5015847;28;20030;-93
2021/08/31 06:47:09;;;;;;;5.13;1.70;;;;;;;17.53;71.56;101916.75;5010310;28;20384;-87
2021/08/31 06:49:35;;;;;;;2.00;1.50;;;;;;;17.68;71.08;101920.09;5016113;28;20061;-86
2021/08/31 06:52:01;;;;;;;2.50;1.70;;;;;;;17.78;70.65;101919.28;5016108;28;20042;-86
2021/08/31 06:54:26;;;;;;;3.10;1.77;;;;;;;17.77;69.86;101917.59;5016047;28;20024;-85
2021/08/31 06:56:51;;;;;;;3.10;1.45;;;;;;;17.79;70.51;101921.00;5016512;28;20022;-86
2021/08/31 06:59:17;;;;;;;2.65;1.30;;;;;;;17.91;70.01;101915.72;5015099;28;20030;-86
2021/08/31 07:01:42;;;;;;;3.17;1.80;;;;;;;17.82;70.60;101917.25;5015086;28;20030;-85
2021/08/31 07:04:07;;;;;;;1.38;1.27;;;;;;;18.01;69.33;101917.59;5015378;28;20030;-86
2021/08/31 07:06:33;;;;;;;2.40;1.70;;;;;;;17.69;70.04;101919.94;5015021;28;20034;-85
2021/08/31 07:09:01;;;;;;;2.90;1.50;;;;;;;18.04;69.26;101916.50;5015410;28;20030;-85
2021/08/31 07:11:27;;;;;;;3.00;1.38;;;;;;;18.15;68.65;101913.06;5015457;28;20022;-85
2021/08/31 07:13:52;;;;;;;2.58;1.10;;;;;;;18.20;67.56;101916.19;5018504;28;20025;-85
2021/08/31 07:16:18;;;;;;;1.23;1.08;;;;;;;18.18;68.69;101918.97;5022991;28;20080;-85
2021/08/31 07:18:43;;;;;;;3.35;1.40;;;;;;;18.37;67.61;101917.56;5015432;28;20488;-86
2021/08/31 07:21:08;;;;;;;2.65;1.10;;;;;;;18.16;68.10;101922.72;5015402;28;20088;-85
2021/08/31 07:23:34;;;;;;;2.50;1.42;;;;;;;18.34;67.72;101921.28;5016007;28;20117;-85
2021/08/31 07:25:59;;;;;;;1.95;1.30;;;;;;;18.52;66.52;101927.03;5015461;28;20038;-85
2021/08/31 07:28:24;;;;;;;3.03;1.42;;;;;;;18.53;65.69;101927.88;5015226;28;20041;-85
2021/08/31 07:30:50;;;;;;;3.47;1.80;;;;;;;18.72;65.11;101922.81;5015472;28;20037;-85
2021/08/31 07:33:16;;;;;;;3.22;1.30;;;;;;;18.99;64.55;101925.13;5015144;28;20484;-85
2021/08/31 07:35:43;;;;;;;2.92;1.23;;;;;;;18.83;65.12;101924.66;5014960;28;20034;-85
2021/08/31 07:38:09;;;;;;;2.65;1.25;;;;;;;18.76;63.94;101921.59;5014717;28;20076;-85
2021/08/31 07:40:34;;;;;;;2.75;1.48;;;;;;;18.97;63.60;101932.38;5014125;28;20484;-85
2021/08/31 07:43:00;;;;;;;4.32;1.35;;;;;;;19.21;62.94;101926.06;5015299;28;20029;-85
2021/08/31 07:45:25;;;;;;;4.82;1.48;;;;;;;19.01;62.87;101919.66;5014367;28;20076;-85
2021/08/31 07:47:51;;;;;;;3.67;1.50;;;;;;;19.02;63.60;101930.19;5015577;28;20034;-85
2021/08/31 07:50:16;;;;;;;3.47;1.20;;;;;;;19.17;62.71;101927.28;5015139;28;20022;-85
2021/08/31 07:52:42;;;;;;;3.35;1.60;;;;;;;19.18;61.99;101931.66;5015213;28;20072;-84
2021/08/31 07:55:09;;;;;;;4.13;1.40;;;;;;;19.27;62.29;101928.22;5014838;28;20033;-85
2021/08/31 07:57:36;;;;;;;4.18;1.63;;;;;;;19.31;62.11;101928.81;5014993;28;20435;-86
2021/08/31 08:00:03;;;;;;;2.95;1.80;;;;;;;19.43;61.57;101922.50;5014996;28;20029;-87
2021/08/31 08:02:28;;;;;;;6.80;1.80;;;;;;;19.71;61.47;101931.78;5014752;28;20392;-87
2021/08/31 08:04:58;;;;;;;4.28;2.03;;;;;;;19.60;60.64;101923.78;5013923;28;20029;-85
2021/08/31 08:07:26;;;;;;;3.20;2.22;;;;;;;19.51;61.44;101930.72;5013861;28;20419;-87
2021/08/31 08:09:51;;;;;;;5.68;1.95;;;;;;;19.84;60.99;101930.75;5014312;28;20412;-85
2021/08/31 08:12:17;;;;;;;4.85;2.08;;;;;;;19.88;61.05;101927.69;5014041;28;20025;-86
2021/08/31 08:14:42;;;;;;;5.97;2.33;;;;;;;19.65;61.51;101937.59;5022243;28;20029;-85
2021/08/31 08:17:08;;;;;;;5.00;2.50;;;;;;;19.59;61.71;101935.44;5034112;28;20034;-85
2021/08/31 08:19:33;;;;;;;5.07;2.38;;;;;;;19.88;60.41;101937.53;5018217;28;20113;-85
2021/08/31 08:21:58;;;;;;;6.28;2.75;;;;;;;19.66;61.15;101941.94;5014339;28;20468;-86
2021/08/31 08:24:24;;;;;;;6.68;2.50;;;;;;;19.85;60.50;101940.47;5025892;28;20113;-86
2021/08/31 08:26:51;;;;;;;5.60;2.53;;;;;;;19.71;61.70;101953.09;5019204;28;20068;-85
2021/08/31 08:29:17;;;;;;;3.92;2.08;;;;;;;19.92;60.57;101947.78;5016078;28;20041;-85
2021/08/31 08:31:45;;;;;;;6.95;2.08;;;;;;;20.08;60.16;101949.19;5013887;28;20365;-85
2021/08/31 08:34:11;;;;;;;9.88;2.75;;;;;;;20.22;59.09;101951.53;5015232;28;20026;-85
2021/08/31 08:36:36;;;;;;;6.57;2.42;;;;;;;20.04;60.16;101947.75;5013551;28;20026;-85
2021/08/31 08:39:02;;;;;;;6.10;2.33;;;;;;;20.18;59.62;101948.31;5022502;28;20030;-86
2021/08/31 08:41:27;;;;;;;5.25;2.47;;;;;;;20.14;58.84;101952.19;5013639;28;20392;-85
2021/08/31 08:43:58;;;;;;;7.55;2.70;;;;;;;20.11;59.83;101955.13;5020618;28;20029;-85
2021/08/31 08:46:24;;;;;;;8.98;2.80;;;;;;;19.45;61.92;101952.53;5018628;28;20026;-86
2021/08/31 08:48:49;;;;;;;4.07;2.60;;;;;;;19.93;60.78;101951.34;5017494;28;20046;-85
2021/08/31 08:51:15;;;;;;;5.30;1.88;;;;;;;20.27;60.12;101946.66;5013627;28;20057;-85
2021/08/31 08:53:40;;;;;;;7.38;2.60;;;;;;;20.35;59.54;101946.00;5013611;28;20045;-85
2021/08/31 08:56:06;;;;;;;5.10;2.95;;;;;;;20.30;59.31;101950.88;5013285;28;20034;-85
2021/08/31 08:58:31;;;;;;;7.65;2.47;;;;;;;20.71;58.40;101951.84;5013614;28;20030;-85
2021/08/31 09:01:04;;;;;;;7.68;2.50;;;;;;;20.89;57.55;101958.28;5013844;28;20116;-85
2021/08/31 09:03:32;;;;;;;4.75;2.22;;;;;;;20.75;58.57;101948.81;5013696;28;20105;-85
2021/08/31 09:06:18;;;;;;;7.75;2.20;;;;;;;20.99;58.16;101959.16;5028455;28;20022;-85
2021/08/31 09:08:54;;;;;;;5.50;2.10;;;;;;;21.23;57.22;101960.66;5016773;28;20041;-86
2021/08/31 09:11:29;;;;;;;4.47;2.35;;;;;;;20.86;57.74;101966.56;5006012;28;20042;-85
2021/08/31 09:14:15;;;;;;;4.80;1.95;;;;;;;21.69;57.17;101969.91;5014305;28;20105;-86
2021/08/31 09:16:42;;;;;;;3.83;2.30;;;;;;;21.77;55.96;101959.34;5023296;28;20030;-85
2021/08/31 09:19:07;;;;;;;3.72;2.20;;;;;;;22.94;54.34;101964.53;5019614;28;20052;-86
2021/08/31 09:21:33;;;;;;;5.40;2.45;;;;;;;22.97;52.78;101968.75;5018390;28;20026;-85
2021/08/31 09:24:00;;;;;;;5.43;2.17;;;;;;;23.64;51.06;101958.69;5021560;28;20169;-86
2021/08/31 09:26:34;;;;;;;4.25;2.33;;;;;;;23.78;50.50;101956.50;5025895;28;20041;-86
2021/08/31 09:29:15;;;;;;;5.03;2.60;;;;;;;23.24;51.37;101970.63;5027746;28;20087;-86
2021/08/31 09:31:56;;;;;;;6.47;2.40;;;;;;;23.44;50.82;101974.06;5031678;28;20046;-85
2021/08/31 09:34:41;;;;;;;3.45;2.10;;;;;;;23.48;50.67;101967.38;5032753;28;20029;-86
2021/08/31 09:37:28;;;;;;;7.53;2.15;;;;;;;23.52;50.19;101970.63;5032563;28;20067;-86
2021/08/31 09:40:01;;;;;;;5.85;2.28;;;;;;;23.86;50.05;101959.25;5014526;28;20116;-86
2021/08/31 09:42:26;;;;;;;3.03;1.77;;;;;;;23.83;49.51;101968.41;5012688;28;20038;-86
2021/08/31 09:45:00;;;;;;;3.55;1.73;;;;;;;23.94;49.60;101970.03;5012591;28;20426;-86
2021/08/31 09:47:33;;;;;;;4.03;2.08;;;;;;;23.73;50.24;101968.47;5012656;28;20034;-86
2021/08/31 09:49:58;;;;;;;2.85;1.95;;;;;;;23.27;49.89;101978.38;5013359;28;20095;-86
2021/08/31 09:52:25;;;;;;;4.88;1.60;;;;;;;23.40;50.27;101978.03;5012572;28;20482;-85
2021/08/31 09:54:51;;;;;;;2.10;1.42;;;;;;;23.29;50.32;101978.22;5012032;28;20072;-86
2021/08/31 09:57:34;;;;;;;3.88;1.60;;;;;;;23.03;50.66;101972.72;5012248;28;20109;-86
2021/08/31 10:00:05;;;;;;;3.08;1.60;;;;;;;22.90;51.30;101973.84;5013085;28;20038;-86
2021/08/31 10:02:30;;;;;;;2.85;1.50;;;;;;;22.74;52.06;101973.63;5011860;28;20454;-86
2021/08/31 10:04:57;;;;;;;2.90;1.70;;;;;;;22.73;51.94;101977.31;5012189;28;20033;-86
2021/08/31 10:07:23;;;;;;;5.80;1.90;;;;;;;22.53;52.55;101976.50;5012644;28;20059;-86
2021/08/31 10:09:49;;;;;;;4.47;1.90;;;;;;;21.78;54.54;101982.44;5012916;28;20476;-86
2021/08/31 10:12:19;;;;;;;6.60;2.00;;;;;;;21.97;54.20;101988.78;5012452;28;20495;-86
2021/08/31 10:14:50;;;;;;;4.97;2.10;;;;;;;21.42;55.37;101983.06;5011763;28;20022;-86
2021/08/31 10:17:19;;;;;;;4.70;2.25;;;;;;;21.70;55.17;101986.78;5012174;28;20053;-86
2021/08/31 10:19:46;;;;;;;4.43;1.83;;;;;;;21.78;55.05;101990.47;5012203;28;20029;-86
2021/08/31 10:22:13;;;;;;;6.32;2.17;;;;;;;21.72;55.64;101980.34;5012483;28;20033;-86
2021/08/31 10:24:42;;;;;;;6.13;2.20;;;;;;;21.93;55.64;101974.84;5012501;28;20496;-86
2021/08/31 10:27:30;;;;;;;4.82;2.40;;;;;;;22.18;55.73;101978.78;5012211;28;20069;-86
2021/08/31 10:30:20;;;;;;;5.50;2.30;;;;;;;22.01;55.90;101978.66;5011883;28;20034;-86
2021/08/31 10:32:54;;;;;;;2.60;1.92;;;;;;;21.92;55.84;101974.97;5012037;28;20030;-86
2021/08/31 10:35:28;;;;;;;6.07;2.67;;;;;;;22.41;55.53;101974.97;5011873;28;20061;-85
2021/08/31 10:37:54;;;;;;;1.88;1.75;;;;;;;22.23;54.67;101983.69;5011776;28;20084;-85
2021/08/31 10:40:35;;;;;;;4.70;2.30;;;;;;;22.42;54.89;101977.53;5017167;28;20029;-86
2021/08/31 10:43:03;;;;;;;5.03;2.13;;;;;;;22.46;54.75;101984.28;5031328;28;20033;-86
2021/08/31 10:45:30;;;;;;;4.28;2.55;;;;;;;22.15;54.09;101979.06;5030265;28;20034;-86
2021/08/31 10:47:56;;;;;;;4.65;3.08;;;;;;;22.37;53.75;101986.00;5031339;28;20531;-86
2021/08/31 10:50:30;;;;;;;7.78;3.05;;;;;;;22.28;54.63;101991.34;5031492;28;20061;-85
2021/08/31 10:53:04;;;;;;;3.35;2.00;;;;;;;22.49;54.44;101975.97;5031244;28;20029;-85
2021/08/31 10:55:33;;;;;;;5.50;2.08;;;;;;;22.05;54.43;101983.56;5012639;28;20034;-85
2021/08/31 10:58:04;;;;;;;4.55;2.30;;;;;;;22.18;54.05;101973.44;5011893;28;20284;-86
2021/08/31 11:00:30;;;;;;;3.17;1.80;;;;;;;22.35;54.10;101987.97;5011930;28;20026;-85
2021/08/31 11:02:58;;;;;;;4.55;2.33;;;;;;;22.42;53.76;101979.34;5011580;28;20026;-85
2021/08/31 11:05:25;;;;;;;5.57;2.55;;;;;;;22.56;52.63;101982.41;5011628;28;20030;-85
2021/08/31 11:08:13;;;;;;;2.53;2.08;;;;;;;23.01;51.69;101990.75;5011279;28;20088;-86
2021/08/31 11:10:44;;;;;;;5.55;1.98;;;;;;;22.78;52.09;101983.06;5011480;28;20021;-86
2021/08/31 11:13:12;;;;;;;4.25;2.40;;;;;;;22.49;53.36;101986.69;5011647;28;20048;-85
2021/08/31 11:15:38;;;;;;;6.30;2.50;;;;;;;22.51;53.59;101994.53;5014863;28;20388;-85
2021/08/31 11:18:08;;;;;;;6.15;2.50;;;;;;;22.54;52.87;101996.94;5014984;28;20037;-86
2021/08/31 11:20:34;;;;;;;3.58;2.17;;;;;;;22.53;52.90;102008.63;5015072;28;20052;-86
2021/08/31 11:23:03;;;;;;;2.88;1.95;;;;;;;22.49;52.45;102005.41;5014559;28;20112;-85
2021/08/31 11:25:31;;;;;;;2.80;1.98;;;;;;;22.89;52.77;102004.31;5014540;28;20030;-85